QFA36 WSSS-YMML
Flight info
| Callsign | QFA36 |
|---|---|
| Flight time | N/A |
| Altitude | 39000 |
| Route | ANITO8B ANITO B470 PKP L895 SAPDA A585 AD V255 BENDO Y12 ARBEY |
| Aircraft | A332/H-SDE3GHIJ2J3J5M1RVWXY/LB2D1 |
Departure
| Time | 2026-05-04 21:09 |
|---|---|
| Airport | Singapore Changi Airport (WSSS) |
Arrival
| Time | N/A |
|---|---|
| Airport | Melbourne Airport (YMML) |
| Time | Latitude | Longitude | Altitude | Speed | Heading |
|---|---|---|---|---|---|
| 2026-05-04 20:23 | 1.36441 | 103.99049 | 34 ft | 0 kts | 292° |
| 2026-05-04 20:51 | 1.36435 | 103.99064 | 34 ft | 4 kts | 284° |
| 2026-05-04 20:52 | 1.36430 | 103.99091 | 34 ft | 4 kts | 273° |
| 2026-05-04 20:52 | 1.36427 | 103.99117 | 34 ft | 4 kts | 296° |
| 2026-05-04 20:52 | 1.36416 | 103.99134 | 34 ft | 4 kts | 341° |
| 2026-05-04 20:52 | 1.36395 | 103.99132 | 34 ft | 3 kts | 23° |
| 2026-05-04 20:53 | 1.36372 | 103.99122 | 34 ft | 2 kts | 23° |
| 2026-05-04 20:53 | 1.36370 | 103.99121 | 34 ft | 0 kts | 23° |
| 2026-05-04 20:57 | 1.36371 | 103.99121 | 34 ft | 1 kts | 23° |
| 2026-05-04 20:57 | 1.36379 | 103.99125 | 34 ft | 3 kts | 23° |
| 2026-05-04 20:57 | 1.36406 | 103.99136 | 34 ft | 5 kts | 24° |
| 2026-05-04 20:57 | 1.36450 | 103.99166 | 34 ft | 10 kts | 47° |
| 2026-05-04 20:58 | 1.36498 | 103.99228 | 34 ft | 12 kts | 53° |
| 2026-05-04 20:58 | 1.36547 | 103.99293 | 34 ft | 12 kts | 52° |
| 2026-05-04 20:58 | 1.36590 | 103.99351 | 34 ft | 8 kts | 65° |
| 2026-05-04 20:58 | 1.36580 | 103.99405 | 34 ft | 9 kts | 114° |
| 2026-05-04 20:59 | 1.36552 | 103.99469 | 34 ft | 12 kts | 113° |
| 2026-05-04 20:59 | 1.36517 | 103.99550 | 34 ft | 14 kts | 112° |
| 2026-05-04 20:59 | 1.36479 | 103.99639 | 34 ft | 14 kts | 113° |
| 2026-05-04 20:59 | 1.36440 | 103.99731 | 34 ft | 13 kts | 113° |
| 2026-05-04 21:00 | 1.36398 | 103.99778 | 34 ft | 8 kts | 170° |
| 2026-05-04 21:00 | 1.36342 | 103.99761 | 34 ft | 9 kts | 201° |
| 2026-05-04 21:00 | 1.36270 | 103.99731 | 34 ft | 13 kts | 203° |
| 2026-05-04 21:00 | 1.36171 | 103.99689 | 34 ft | 17 kts | 203° |
| 2026-05-04 21:01 | 1.36048 | 103.99638 | 34 ft | 21 kts | 202° |
| 2026-05-04 21:01 | 1.35914 | 103.99581 | 34 ft | 21 kts | 203° |
| 2026-05-04 21:01 | 1.35781 | 103.99525 | 34 ft | 21 kts | 202° |
| 2026-05-04 21:01 | 1.35647 | 103.99468 | 34 ft | 21 kts | 202° |
| 2026-05-04 21:02 | 1.35514 | 103.99413 | 34 ft | 21 kts | 202° |
| 2026-05-04 21:02 | 1.35380 | 103.99357 | 34 ft | 21 kts | 202° |
| 2026-05-04 21:02 | 1.35247 | 103.99300 | 34 ft | 21 kts | 203° |
| 2026-05-04 21:02 | 1.35114 | 103.99244 | 34 ft | 21 kts | 202° |
| 2026-05-04 21:03 | 1.34982 | 103.99188 | 34 ft | 21 kts | 204° |
| 2026-05-04 21:03 | 1.34850 | 103.99133 | 34 ft | 20 kts | 202° |
| 2026-05-04 21:03 | 1.34719 | 103.99078 | 34 ft | 20 kts | 202° |
| 2026-05-04 21:03 | 1.34588 | 103.99023 | 34 ft | 20 kts | 203° |
| 2026-05-04 21:04 | 1.34457 | 103.98967 | 34 ft | 20 kts | 203° |
| 2026-05-04 21:04 | 1.34326 | 103.98912 | 34 ft | 20 kts | 203° |
| 2026-05-04 21:04 | 1.34195 | 103.98857 | 34 ft | 20 kts | 202° |
| 2026-05-04 21:04 | 1.34064 | 103.98802 | 34 ft | 20 kts | 203° |
| 2026-05-04 21:05 | 1.33933 | 103.98747 | 34 ft | 20 kts | 202° |
| 2026-05-04 21:05 | 1.33802 | 103.98692 | 34 ft | 20 kts | 202° |
| 2026-05-04 21:05 | 1.33671 | 103.98637 | 34 ft | 20 kts | 202° |
| 2026-05-04 21:05 | 1.33541 | 103.98582 | 34 ft | 20 kts | 203° |
| 2026-05-04 21:06 | 1.33410 | 103.98527 | 34 ft | 20 kts | 203° |
| 2026-05-04 21:06 | 1.33279 | 103.98471 | 34 ft | 20 kts | 203° |
| 2026-05-04 21:06 | 1.33147 | 103.98416 | 34 ft | 21 kts | 202° |
| 2026-05-04 21:06 | 1.33024 | 103.98364 | 34 ft | 15 kts | 203° |
| 2026-05-04 21:07 | 1.32958 | 103.98355 | 34 ft | 8 kts | 149° |
| 2026-05-04 21:07 | 1.32925 | 103.98416 | 34 ft | 15 kts | 114° |
| 2026-05-04 21:07 | 1.32901 | 103.98494 | 34 ft | 9 kts | 78° |
| 2026-05-04 21:07 | 1.32949 | 103.98527 | 34 ft | 12 kts | 22° |
| 2026-05-04 21:08 | 1.33179 | 103.98623 | 34 ft | 65 kts | 23° |
| 2026-05-04 21:08 | 1.33764 | 103.98870 | 34 ft | 116 kts | 23° |
| 2026-05-04 21:08 | 1.34650 | 103.99246 | 35 ft | 159 kts | 23° |
| 2026-05-04 21:08 | 1.35710 | 103.99698 | 395 ft | 168 kts | 22° |
| 2026-05-04 21:09 | 1.36787 | 104.00159 | 985 ft | 168 kts | 23° |
| 2026-05-04 21:09 | 1.37871 | 104.00617 | 1563 ft | 170 kts | 22° |
| 2026-05-04 21:09 | 1.38991 | 104.01085 | 1886 ft | 186 kts | 22° |
| 2026-05-04 21:09 | 1.40251 | 104.01611 | 2078 ft | 206 kts | 23° |
| 2026-05-04 21:10 | 1.41651 | 104.02204 | 2219 ft | 232 kts | 23° |
| 2026-05-04 21:10 | 1.42673 | 104.02635 | 2341 ft | 249 kts | 23° |
| 2026-05-04 21:10 | 1.44319 | 104.03332 | 2779 ft | 262 kts | 23° |
| 2026-05-04 21:10 | 1.46489 | 104.04423 | 3640 ft | 266 kts | 38° |
| 2026-05-04 21:11 | 1.47655 | 104.05851 | 4301 ft | 270 kts | 66° |
| 2026-05-04 21:11 | 1.47975 | 104.07078 | 4754 ft | 273 kts | 86° |
| 2026-05-04 21:11 | 1.47664 | 104.08939 | 5474 ft | 275 kts | 110° |
| 2026-05-04 21:11 | 1.46895 | 104.10701 | 6190 ft | 278 kts | 115° |
| 2026-05-04 21:12 | 1.46048 | 104.12454 | 6888 ft | 281 kts | 116° |
| 2026-05-04 21:12 | 1.45191 | 104.14225 | 7575 ft | 285 kts | 115° |
| 2026-05-04 21:12 | 1.44334 | 104.16026 | 8275 ft | 289 kts | 115° |
| 2026-05-04 21:12 | 1.43475 | 104.17852 | 8971 ft | 292 kts | 115° |
| 2026-05-04 21:13 | 1.42612 | 104.19704 | 9644 ft | 296 kts | 115° |
| 2026-05-04 21:13 | 1.41739 | 104.21585 | 10221 ft | 304 kts | 115° |
| 2026-05-04 21:13 | 1.40824 | 104.23559 | 10495 ft | 323 kts | 115° |
| 2026-05-04 21:13 | 1.39852 | 104.25655 | 10736 ft | 341 kts | 115° |
| 2026-05-04 21:14 | 1.38833 | 104.27857 | 11005 ft | 356 kts | 115° |
| 2026-05-04 21:14 | 1.37797 | 104.30095 | 11480 ft | 363 kts | 115° |
| 2026-05-04 21:14 | 1.36733 | 104.32397 | 12065 ft | 366 kts | 115° |
| 2026-05-04 21:14 | 1.35661 | 104.34714 | 12668 ft | 368 kts | 115° |
| 2026-05-04 21:15 | 1.34564 | 104.37035 | 13277 ft | 371 kts | 118° |
| 2026-05-04 21:15 | 1.33105 | 104.39163 | 13831 ft | 374 kts | 133° |
| 2026-05-04 21:15 | 1.31048 | 104.40756 | 14361 ft | 378 kts | 152° |
| 2026-05-04 21:15 | 1.28580 | 104.41685 | 14873 ft | 381 kts | 163° |
| 2026-05-04 21:16 | 1.26004 | 104.42363 | 15385 ft | 384 kts | 165° |
| 2026-05-04 21:16 | 1.23400 | 104.43009 | 15885 ft | 388 kts | 165° |
| 2026-05-04 21:16 | 1.20771 | 104.43666 | 16385 ft | 391 kts | 165° |
| 2026-05-04 21:16 | 1.18128 | 104.44335 | 16852 ft | 393 kts | 165° |
| 2026-05-04 21:17 | 1.15466 | 104.45015 | 17311 ft | 396 kts | 165° |
| 2026-05-04 21:17 | 1.12785 | 104.45703 | 17766 ft | 399 kts | 165° |
| 2026-05-04 21:17 | 1.10098 | 104.46414 | 18208 ft | 402 kts | 164° |
| 2026-05-04 21:17 | 1.07392 | 104.47161 | 18614 ft | 404 kts | 163° |
| 2026-05-04 21:18 | 1.04673 | 104.47918 | 19025 ft | 407 kts | 163° |
| 2026-05-04 21:18 | 1.01938 | 104.48680 | 19443 ft | 410 kts | 163° |
| 2026-05-04 21:18 | 0.99182 | 104.49447 | 19831 ft | 412 kts | 163° |
| 2026-05-04 21:18 | 0.96410 | 104.50217 | 20207 ft | 415 kts | 163° |
| 2026-05-04 21:19 | 0.93618 | 104.50993 | 20586 ft | 418 kts | 163° |
| 2026-05-04 21:19 | 0.90810 | 104.51773 | 20954 ft | 420 kts | 163° |
| 2026-05-04 21:19 | 0.87987 | 104.52557 | 21307 ft | 422 kts | 163° |
| 2026-05-04 21:19 | 0.85149 | 104.53346 | 21656 ft | 425 kts | 163° |
| 2026-05-04 21:20 | 0.82290 | 104.54141 | 21992 ft | 427 kts | 163° |
| 2026-05-04 21:20 | 0.79421 | 104.54937 | 22319 ft | 429 kts | 163° |
| 2026-05-04 21:20 | 0.76532 | 104.55740 | 22637 ft | 432 kts | 163° |
| 2026-05-04 21:20 | 0.73632 | 104.56546 | 22953 ft | 434 kts | 163° |
| 2026-05-04 21:21 | 0.70717 | 104.57356 | 23244 ft | 436 kts | 163° |
| 2026-05-04 21:21 | 0.67787 | 104.58170 | 23534 ft | 438 kts | 163° |
| 2026-05-04 21:21 | 0.64847 | 104.59009 | 23831 ft | 440 kts | 162° |
| 2026-05-04 21:21 | 0.61900 | 104.59881 | 24122 ft | 442 kts | 162° |
| 2026-05-04 21:22 | 0.58947 | 104.60761 | 24409 ft | 445 kts | 162° |
| 2026-05-04 21:22 | 0.55977 | 104.61647 | 24701 ft | 446 kts | 162° |
| 2026-05-04 21:22 | 0.52996 | 104.62534 | 24984 ft | 448 kts | 162° |
| 2026-05-04 21:22 | 0.50002 | 104.63426 | 25284 ft | 450 kts | 162° |
| 2026-05-04 21:23 | 0.46998 | 104.64319 | 25560 ft | 452 kts | 162° |
| 2026-05-04 21:23 | 0.43977 | 104.65215 | 25840 ft | 453 kts | 162° |
| 2026-05-04 21:23 | 0.40948 | 104.66112 | 26117 ft | 455 kts | 162° |
| 2026-05-04 21:23 | 0.37910 | 104.67011 | 26381 ft | 457 kts | 162° |
| 2026-05-04 21:24 | 0.34855 | 104.67915 | 26650 ft | 458 kts | 162° |
| 2026-05-04 21:24 | 0.31792 | 104.68822 | 26918 ft | 460 kts | 162° |
| 2026-05-04 21:24 | 0.28720 | 104.69732 | 27177 ft | 462 kts | 163° |
| 2026-05-04 21:24 | 0.25632 | 104.70647 | 27442 ft | 463 kts | 163° |
| 2026-05-04 21:25 | 0.22579 | 104.71551 | 27697 ft | 465 kts | 163° |
| 2026-05-04 21:25 | 0.19471 | 104.72471 | 27957 ft | 466 kts | 163° |
| 2026-05-04 21:25 | 0.16356 | 104.73393 | 28189 ft | 468 kts | 163° |
| 2026-05-04 21:25 | 0.13229 | 104.74320 | 28431 ft | 470 kts | 163° |
| 2026-05-04 21:26 | 0.10091 | 104.75252 | 28665 ft | 471 kts | 162° |
| 2026-05-04 21:26 | 0.06943 | 104.76187 | 28899 ft | 473 kts | 163° |
| 2026-05-04 21:26 | 0.03783 | 104.77125 | 29129 ft | 474 kts | 163° |
| 2026-05-04 21:26 | 0.00616 | 104.78066 | 29362 ft | 476 kts | 163° |
| 2026-05-04 21:27 | -0.02562 | 104.79009 | 29585 ft | 477 kts | 163° |
| 2026-05-04 21:27 | -0.05751 | 104.79955 | 29798 ft | 479 kts | 163° |
| 2026-05-04 21:27 | -0.08951 | 104.80906 | 30019 ft | 480 kts | 163° |
| 2026-05-04 21:27 | -0.12159 | 104.81859 | 30211 ft | 482 kts | 163° |
| 2026-05-04 21:28 | -0.15374 | 104.82813 | 30410 ft | 483 kts | 163° |
| 2026-05-04 21:28 | -0.18604 | 104.83772 | 30600 ft | 485 kts | 163° |
| 2026-05-04 21:28 | -0.21834 | 104.84731 | 30782 ft | 486 kts | 163° |
| 2026-05-04 21:28 | -0.25084 | 104.85706 | 30982 ft | 486 kts | 161° |
| 2026-05-04 21:29 | -0.28240 | 104.86923 | 31196 ft | 488 kts | 153° |
| 2026-05-04 21:29 | -0.31190 | 104.88583 | 31517 ft | 485 kts | 148° |
| 2026-05-04 21:29 | -0.34029 | 104.90398 | 31813 ft | 484 kts | 146° |
| 2026-05-04 21:29 | -0.36811 | 104.92268 | 32060 ft | 483 kts | 145° |
| 2026-05-04 21:30 | -0.39588 | 104.94174 | 32293 ft | 483 kts | 145° |
| 2026-05-04 21:30 | -0.42354 | 104.96082 | 32541 ft | 483 kts | 145° |
| 2026-05-04 21:30 | -0.45118 | 104.97983 | 32794 ft | 482 kts | 145° |
| 2026-05-04 21:30 | -0.47886 | 104.99878 | 33065 ft | 481 kts | 145° |
| 2026-05-04 21:31 | -0.53413 | 105.03631 | 33578 ft | 480 kts | 145° |
| 2026-05-04 21:31 | -0.56174 | 105.05500 | 33829 ft | 479 kts | 145° |
| 2026-05-04 21:31 | -0.58935 | 105.07368 | 34068 ft | 479 kts | 145° |
| 2026-05-04 21:32 | -0.61688 | 105.09231 | 34313 ft | 478 kts | 145° |
| 2026-05-04 21:32 | -0.64439 | 105.11092 | 34541 ft | 477 kts | 145° |
| 2026-05-04 21:32 | -0.67189 | 105.12951 | 34764 ft | 477 kts | 145° |
| 2026-05-04 21:32 | -0.69932 | 105.14807 | 34985 ft | 476 kts | 145° |
| 2026-05-04 21:33 | -0.72672 | 105.16661 | 35195 ft | 476 kts | 145° |
| 2026-05-04 21:33 | -0.75414 | 105.18516 | 35403 ft | 475 kts | 145° |
| 2026-05-04 21:33 | -0.78153 | 105.20368 | 35606 ft | 475 kts | 145° |
| 2026-05-04 21:33 | -0.80893 | 105.22210 | 35798 ft | 475 kts | 145° |
| 2026-05-04 21:34 | -0.83632 | 105.24056 | 35992 ft | 475 kts | 145° |
| 2026-05-04 21:34 | -0.86362 | 105.25906 | 36196 ft | 474 kts | 145° |
| 2026-05-04 21:34 | -0.89089 | 105.27757 | 36384 ft | 474 kts | 145° |
| 2026-05-04 21:34 | -0.91781 | 105.29584 | 36567 ft | 474 kts | 145° |
| 2026-05-04 21:35 | -0.94506 | 105.31431 | 36735 ft | 474 kts | 145° |
| 2026-05-04 21:35 | -0.97231 | 105.33278 | 36911 ft | 473 kts | 145° |
| 2026-05-04 21:35 | -0.99950 | 105.35120 | 37121 ft | 472 kts | 145° |
| 2026-05-04 21:35 | -1.02667 | 105.36960 | 37318 ft | 471 kts | 145° |
| 2026-05-04 21:36 | -1.05380 | 105.38796 | 37511 ft | 470 kts | 145° |
| 2026-05-04 21:36 | -1.08087 | 105.40628 | 37701 ft | 470 kts | 145° |
| 2026-05-04 21:36 | -1.10791 | 105.42458 | 37884 ft | 469 kts | 145° |
| 2026-05-04 21:36 | -1.13488 | 105.44283 | 38056 ft | 468 kts | 145° |
| 2026-05-04 21:37 | -1.16180 | 105.46105 | 38221 ft | 467 kts | 145° |
| 2026-05-04 21:37 | -1.18864 | 105.47923 | 38420 ft | 466 kts | 145° |
| 2026-05-04 21:37 | -1.21547 | 105.49737 | 38583 ft | 465 kts | 145° |
| 2026-05-04 21:37 | -1.24223 | 105.51548 | 38732 ft | 464 kts | 145° |
| 2026-05-04 21:38 | -1.26898 | 105.53359 | 38846 ft | 464 kts | 145° |
| 2026-05-04 21:38 | -1.32267 | 105.56993 | 38872 ft | 467 kts | 145° |
| 2026-05-04 21:39 | -1.37638 | 105.60631 | 38868 ft | 466 kts | 145° |
| 2026-05-04 21:39 | -1.43006 | 105.64264 | 38871 ft | 466 kts | 145° |
| 2026-05-04 21:40 | -1.48375 | 105.67901 | 38874 ft | 466 kts | 145° |
| 2026-05-04 21:40 | -1.53742 | 105.71536 | 38871 ft | 466 kts | 145° |
| 2026-05-04 21:41 | -1.59116 | 105.75173 | 38868 ft | 467 kts | 145° |
| 2026-05-04 21:41 | -1.64489 | 105.78812 | 38868 ft | 466 kts | 145° |
| 2026-05-04 21:42 | -1.69859 | 105.82450 | 38870 ft | 467 kts | 145° |
| 2026-05-04 21:42 | -1.75236 | 105.86095 | 38866 ft | 467 kts | 145° |
| 2026-05-04 21:43 | -1.80609 | 105.89733 | 38859 ft | 467 kts | 145° |
| 2026-05-04 21:43 | -1.85983 | 105.93373 | 38860 ft | 466 kts | 145° |
| 2026-05-04 21:44 | -1.91338 | 105.97000 | 38861 ft | 465 kts | 145° |
| 2026-05-04 21:44 | -1.96689 | 106.00625 | 38860 ft | 465 kts | 145° |
| 2026-05-04 21:45 | -2.02008 | 106.04231 | 38861 ft | 465 kts | 145° |
| 2026-05-04 21:45 | -2.07361 | 106.07859 | 38860 ft | 465 kts | 145° |
| 2026-05-04 21:46 | -2.12706 | 106.11481 | 38860 ft | 464 kts | 145° |
| 2026-05-04 21:46 | -2.17639 | 106.15612 | 38863 ft | 463 kts | 131° |
| 2026-05-04 21:47 | -2.21770 | 106.20550 | 38859 ft | 463 kts | 128° |
| 2026-05-04 21:47 | -2.25732 | 106.25631 | 38859 ft | 463 kts | 127° |
| 2026-05-04 21:48 | -2.29670 | 106.30725 | 38861 ft | 463 kts | 127° |
| 2026-05-04 21:48 | -2.33624 | 106.35813 | 38859 ft | 463 kts | 127° |
| 2026-05-04 21:49 | -2.37592 | 106.40895 | 38859 ft | 463 kts | 127° |
| 2026-05-04 21:49 | -2.41561 | 106.45971 | 38860 ft | 463 kts | 127° |
| 2026-05-04 21:50 | -2.45532 | 106.51053 | 38862 ft | 463 kts | 127° |
| 2026-05-04 21:50 | -2.49500 | 106.56130 | 38859 ft | 463 kts | 127° |
| 2026-05-04 21:51 | -2.53466 | 106.61209 | 38862 ft | 463 kts | 127° |
| 2026-05-04 21:51 | -2.57438 | 106.66293 | 38863 ft | 463 kts | 127° |
| 2026-05-04 21:52 | -2.61407 | 106.71369 | 38859 ft | 464 kts | 127° |
| 2026-05-04 21:52 | -2.65376 | 106.76450 | 38859 ft | 463 kts | 127° |
| 2026-05-04 21:53 | -2.69344 | 106.81532 | 38872 ft | 463 kts | 127° |
| 2026-05-04 21:53 | -2.73283 | 106.86576 | 38869 ft | 463 kts | 127° |
| 2026-05-04 21:54 | -2.77252 | 106.91658 | 38868 ft | 464 kts | 127° |
| 2026-05-04 21:54 | -2.81225 | 106.96742 | 38868 ft | 464 kts | 127° |
| 2026-05-04 21:55 | -2.85195 | 107.01828 | 38867 ft | 464 kts | 127° |
| 2026-05-04 21:55 | -2.89162 | 107.06910 | 38871 ft | 464 kts | 127° |
| 2026-05-04 21:56 | -2.93130 | 107.11996 | 38862 ft | 463 kts | 127° |
| 2026-05-04 21:56 | -2.97097 | 107.17081 | 38859 ft | 464 kts | 127° |
| 2026-05-04 21:57 | -3.01062 | 107.22163 | 38859 ft | 464 kts | 127° |
| 2026-05-04 21:57 | -3.05032 | 107.27252 | 38859 ft | 464 kts | 127° |
| 2026-05-04 21:58 | -3.08326 | 107.31476 | 38859 ft | 463 kts | 127° |
| 2026-05-04 21:58 | -3.12291 | 107.36560 | 38859 ft | 463 kts | 127° |
| 2026-05-04 21:59 | -3.16257 | 107.41646 | 38861 ft | 463 kts | 127° |
| 2026-05-04 21:59 | -3.20223 | 107.46733 | 38860 ft | 463 kts | 127° |
| 2026-05-04 22:00 | -3.24185 | 107.51816 | 38859 ft | 463 kts | 127° |
| 2026-05-04 22:00 | -3.28150 | 107.56901 | 38859 ft | 463 kts | 128° |
| 2026-05-04 22:01 | -3.32595 | 107.61543 | 38862 ft | 463 kts | 142° |
| 2026-05-04 22:01 | -3.38179 | 107.64746 | 38859 ft | 464 kts | 154° |
| 2026-05-04 22:02 | -3.44087 | 107.67358 | 38860 ft | 465 kts | 156° |
| 2026-05-04 22:02 | -3.50045 | 107.69867 | 38862 ft | 464 kts | 156° |
| 2026-05-04 22:03 | -3.55992 | 107.72391 | 38859 ft | 464 kts | 156° |
| 2026-05-04 22:03 | -3.61934 | 107.74944 | 38859 ft | 464 kts | 156° |
| 2026-05-04 22:04 | -3.67865 | 107.77506 | 38860 ft | 464 kts | 156° |
| 2026-05-04 22:04 | -3.73796 | 107.80068 | 38860 ft | 464 kts | 156° |
| 2026-05-04 22:05 | -3.79725 | 107.82629 | 38860 ft | 464 kts | 156° |
| 2026-05-04 22:05 | -3.85657 | 107.85191 | 38860 ft | 464 kts | 156° |
| 2026-05-04 22:06 | -3.91588 | 107.87753 | 38860 ft | 464 kts | 156° |
| 2026-05-04 22:06 | -3.97521 | 107.90315 | 38861 ft | 464 kts | 156° |
| 2026-05-04 22:07 | -4.03448 | 107.92874 | 38860 ft | 464 kts | 156° |
| 2026-05-04 22:07 | -4.09380 | 107.95438 | 38868 ft | 464 kts | 156° |
| 2026-05-04 22:08 | -4.15308 | 107.97999 | 38869 ft | 464 kts | 156° |
| 2026-05-04 22:08 | -4.21239 | 108.00563 | 38869 ft | 464 kts | 156° |
| 2026-05-04 22:09 | -4.27131 | 108.03111 | 38867 ft | 464 kts | 156° |
| 2026-05-04 22:09 | -4.33102 | 108.05691 | 38870 ft | 464 kts | 156° |
| 2026-05-04 22:10 | -4.38995 | 108.08238 | 38867 ft | 464 kts | 156° |
| 2026-05-04 22:10 | -4.44926 | 108.10803 | 38871 ft | 464 kts | 156° |
| 2026-05-04 22:11 | -4.50899 | 108.13386 | 38867 ft | 464 kts | 156° |
| 2026-05-04 22:11 | -4.56829 | 108.15954 | 38871 ft | 464 kts | 156° |
| 2026-05-04 22:12 | -4.62730 | 108.18508 | 38872 ft | 465 kts | 156° |
| 2026-05-04 22:12 | -4.68666 | 108.21076 | 38867 ft | 465 kts | 156° |
| 2026-05-04 22:13 | -4.74601 | 108.23645 | 38870 ft | 465 kts | 156° |
| 2026-05-04 22:13 | -4.80540 | 108.26216 | 38868 ft | 465 kts | 156° |
| 2026-05-04 22:14 | -4.86479 | 108.28782 | 38867 ft | 465 kts | 156° |
| 2026-05-04 22:14 | -4.92422 | 108.31358 | 38871 ft | 465 kts | 156° |
| 2026-05-04 22:15 | -4.98360 | 108.33933 | 38871 ft | 465 kts | 156° |
| 2026-05-04 22:15 | -5.04305 | 108.36511 | 38871 ft | 465 kts | 156° |
| 2026-05-04 22:16 | -5.10247 | 108.39087 | 38871 ft | 465 kts | 156° |
| 2026-05-04 22:16 | -5.16188 | 108.41664 | 38868 ft | 466 kts | 156° |
| 2026-05-04 22:17 | -5.22135 | 108.44239 | 38874 ft | 465 kts | 156° |
| 2026-05-04 22:17 | -5.28043 | 108.46799 | 38870 ft | 465 kts | 156° |
| 2026-05-04 22:18 | -5.33988 | 108.49378 | 38868 ft | 466 kts | 156° |
| 2026-05-04 22:18 | -5.39936 | 108.51960 | 38870 ft | 466 kts | 156° |
| 2026-05-04 22:19 | -5.45882 | 108.54539 | 38869 ft | 466 kts | 156° |
| 2026-05-04 22:19 | -5.51832 | 108.57122 | 38867 ft | 466 kts | 156° |
| 2026-05-04 22:20 | -5.57776 | 108.59702 | 38869 ft | 466 kts | 156° |
| 2026-05-04 22:20 | -5.63725 | 108.62283 | 38867 ft | 465 kts | 156° |
| 2026-05-04 22:21 | -5.69668 | 108.64865 | 38869 ft | 466 kts | 156° |
| 2026-05-04 22:21 | -5.75619 | 108.67451 | 38873 ft | 466 kts | 156° |
| 2026-05-04 22:22 | -5.81566 | 108.70036 | 38867 ft | 466 kts | 156° |
| 2026-05-04 22:22 | -5.87511 | 108.72620 | 38867 ft | 466 kts | 156° |
| 2026-05-04 22:23 | -5.93456 | 108.75203 | 38867 ft | 465 kts | 156° |
| 2026-05-04 22:23 | -5.99402 | 108.77786 | 38872 ft | 466 kts | 156° |
| 2026-05-04 22:24 | -6.05351 | 108.80375 | 38871 ft | 466 kts | 156° |
| 2026-05-04 22:24 | -6.11298 | 108.82964 | 38868 ft | 466 kts | 156° |
| 2026-05-04 22:25 | -6.17246 | 108.85554 | 38867 ft | 466 kts | 156° |
| 2026-05-04 22:25 | -6.23157 | 108.88127 | 38867 ft | 466 kts | 156° |
| 2026-05-04 22:26 | -6.29150 | 108.90735 | 38867 ft | 466 kts | 156° |
| 2026-05-04 22:26 | -6.35099 | 108.93324 | 38869 ft | 466 kts | 156° |
| 2026-05-04 22:27 | -6.41052 | 108.95918 | 38868 ft | 466 kts | 156° |
| 2026-05-04 22:27 | -6.47003 | 108.98511 | 38871 ft | 466 kts | 156° |
| 2026-05-04 22:28 | -6.52954 | 109.01105 | 38867 ft | 466 kts | 156° |
| 2026-05-04 22:28 | -6.58904 | 109.03698 | 38867 ft | 466 kts | 156° |
| 2026-05-04 22:29 | -6.64851 | 109.06290 | 38867 ft | 466 kts | 156° |
| 2026-05-04 22:29 | -6.70761 | 109.08869 | 38872 ft | 466 kts | 156° |
| 2026-05-04 22:30 | -6.76713 | 109.11464 | 38870 ft | 466 kts | 156° |
| 2026-05-04 22:30 | -6.82669 | 109.14063 | 38866 ft | 467 kts | 156° |
| 2026-05-04 22:31 | -6.88629 | 109.16663 | 38868 ft | 466 kts | 156° |
| 2026-05-04 22:31 | -6.94583 | 109.19260 | 38868 ft | 466 kts | 156° |
| 2026-05-04 22:32 | -7.00534 | 109.21859 | 38865 ft | 466 kts | 156° |
| 2026-05-04 22:32 | -7.06479 | 109.24457 | 38860 ft | 466 kts | 156° |
| 2026-05-04 22:33 | -7.12439 | 109.27063 | 38860 ft | 467 kts | 156° |
| 2026-05-04 22:33 | -7.18389 | 109.29664 | 38860 ft | 466 kts | 156° |
| 2026-05-04 22:34 | -7.24344 | 109.32267 | 38860 ft | 467 kts | 156° |
| 2026-05-04 22:34 | -7.30303 | 109.34872 | 38859 ft | 467 kts | 156° |
| 2026-05-04 22:35 | -7.36223 | 109.37460 | 38860 ft | 467 kts | 156° |
| 2026-05-04 22:35 | -7.42181 | 109.40069 | 38860 ft | 467 kts | 156° |
| 2026-05-04 22:36 | -7.48137 | 109.42679 | 38859 ft | 467 kts | 157° |
| 2026-05-04 22:36 | -7.54098 | 109.45288 | 38859 ft | 467 kts | 157° |
| 2026-05-04 22:37 | -7.60055 | 109.47896 | 38859 ft | 467 kts | 157° |
| 2026-05-04 22:37 | -7.66016 | 109.50509 | 38860 ft | 467 kts | 157° |
| 2026-05-04 22:38 | -7.71978 | 109.53123 | 38860 ft | 467 kts | 157° |
| 2026-05-04 22:38 | -7.77935 | 109.55734 | 38860 ft | 467 kts | 157° |
| 2026-05-04 22:39 | -7.83893 | 109.58346 | 38860 ft | 467 kts | 157° |
| 2026-05-04 22:39 | -7.89859 | 109.60963 | 38859 ft | 467 kts | 157° |
| 2026-05-04 22:40 | -7.95817 | 109.63578 | 38859 ft | 467 kts | 157° |
| 2026-05-04 22:40 | -8.01780 | 109.66194 | 38859 ft | 467 kts | 157° |
| 2026-05-04 22:41 | -8.07741 | 109.68811 | 38860 ft | 467 kts | 157° |
| 2026-05-04 22:41 | -8.13684 | 109.71422 | 38860 ft | 467 kts | 157° |
| 2026-05-04 22:42 | -8.19646 | 109.74041 | 38859 ft | 467 kts | 157° |
| 2026-05-04 22:42 | -8.25604 | 109.76657 | 38860 ft | 467 kts | 157° |
| 2026-05-04 22:43 | -8.31526 | 109.79262 | 38862 ft | 467 kts | 157° |
| 2026-05-04 22:43 | -8.37489 | 109.81883 | 38860 ft | 467 kts | 157° |
| 2026-05-04 22:44 | -8.43451 | 109.84508 | 38860 ft | 468 kts | 157° |
| 2026-05-04 22:44 | -8.49419 | 109.87134 | 38860 ft | 468 kts | 157° |
| 2026-05-04 22:45 | -8.55382 | 109.89760 | 38860 ft | 468 kts | 157° |
| 2026-05-04 22:45 | -8.63361 | 109.93275 | 38860 ft | 468 kts | 157° |
| 2026-05-04 22:46 | -8.69293 | 109.95889 | 38860 ft | 468 kts | 157° |
| 2026-05-04 22:46 | -8.75267 | 109.98523 | 38860 ft | 469 kts | 157° |
| 2026-05-04 22:47 | -8.81246 | 110.01159 | 38860 ft | 469 kts | 157° |
| 2026-05-04 22:47 | -8.87234 | 110.03799 | 38860 ft | 469 kts | 157° |
| 2026-05-04 22:48 | -8.93222 | 110.06441 | 38860 ft | 470 kts | 157° |
| 2026-05-04 22:48 | -8.99223 | 110.09089 | 38859 ft | 470 kts | 157° |
| 2026-05-04 22:49 | -9.05216 | 110.11736 | 38862 ft | 470 kts | 157° |
| 2026-05-04 22:49 | -9.11215 | 110.14386 | 38859 ft | 471 kts | 157° |
| 2026-05-04 22:50 | -9.17219 | 110.17037 | 38860 ft | 471 kts | 157° |
| 2026-05-04 22:50 | -9.23225 | 110.19692 | 38860 ft | 471 kts | 157° |
| 2026-05-04 22:51 | -9.29230 | 110.22347 | 38860 ft | 471 kts | 157° |
| 2026-05-04 22:51 | -9.35246 | 110.25008 | 38859 ft | 472 kts | 157° |
| 2026-05-04 22:52 | -9.41262 | 110.27671 | 38859 ft | 472 kts | 157° |
| 2026-05-04 22:52 | -9.47281 | 110.30333 | 38859 ft | 472 kts | 157° |
| 2026-05-04 22:53 | -9.53303 | 110.33002 | 38871 ft | 472 kts | 157° |
| 2026-05-04 22:53 | -9.59322 | 110.35670 | 38867 ft | 473 kts | 157° |
| 2026-05-04 22:54 | -9.65307 | 110.38321 | 38867 ft | 473 kts | 157° |
| 2026-05-04 22:54 | -9.71337 | 110.40995 | 38871 ft | 473 kts | 157° |
| 2026-05-04 22:55 | -9.77362 | 110.43669 | 38872 ft | 473 kts | 157° |
| 2026-05-04 22:55 | -9.83393 | 110.46346 | 38877 ft | 473 kts | 157° |
| 2026-05-04 22:56 | -9.89424 | 110.49023 | 38878 ft | 473 kts | 157° |
| 2026-05-04 22:56 | -9.95452 | 110.51694 | 38878 ft | 473 kts | 157° |
| 2026-05-04 22:57 | -10.01492 | 110.54360 | 38878 ft | 473 kts | 157° |
| 2026-05-04 22:57 | -10.07527 | 110.57025 | 38880 ft | 473 kts | 157° |
| 2026-05-04 22:58 | -10.13566 | 110.59693 | 38878 ft | 473 kts | 157° |
| 2026-05-04 22:58 | -10.19608 | 110.62365 | 38880 ft | 474 kts | 157° |
| 2026-05-04 22:59 | -10.25646 | 110.65035 | 38878 ft | 473 kts | 157° |
| 2026-05-04 22:59 | -10.31683 | 110.67707 | 38878 ft | 474 kts | 157° |
| 2026-05-04 23:00 | -10.37729 | 110.70384 | 38878 ft | 474 kts | 157° |
| 2026-05-04 23:00 | -10.43770 | 110.73059 | 38879 ft | 474 kts | 157° |
| 2026-05-04 23:01 | -10.49813 | 110.75736 | 38878 ft | 474 kts | 157° |
| 2026-05-04 23:01 | -10.55851 | 110.78412 | 38869 ft | 473 kts | 157° |
| 2026-05-04 23:02 | -10.61893 | 110.81090 | 38874 ft | 474 kts | 157° |
| 2026-05-04 23:02 | -10.67889 | 110.83748 | 38876 ft | 474 kts | 157° |
| 2026-05-04 23:03 | -10.73932 | 110.86431 | 38877 ft | 473 kts | 157° |
| 2026-05-04 23:03 | -10.79975 | 110.89114 | 38879 ft | 474 kts | 158° |
| 2026-05-04 23:04 | -10.86011 | 110.91798 | 38879 ft | 474 kts | 157° |
| 2026-05-04 23:04 | -10.92059 | 110.94485 | 38879 ft | 474 kts | 158° |
| 2026-05-04 23:05 | -10.98104 | 110.97171 | 38879 ft | 474 kts | 158° |
| 2026-05-04 23:05 | -11.04147 | 110.99858 | 38878 ft | 474 kts | 158° |
| 2026-05-04 23:06 | -11.10185 | 111.02546 | 38878 ft | 474 kts | 158° |
| 2026-05-04 23:06 | -11.16230 | 111.05237 | 38877 ft | 474 kts | 158° |
| 2026-05-04 23:07 | -11.22271 | 111.07930 | 38878 ft | 474 kts | 158° |
| 2026-05-04 23:07 | -11.28318 | 111.10623 | 38880 ft | 474 kts | 158° |
| 2026-05-04 23:08 | -11.34325 | 111.13300 | 38879 ft | 474 kts | 158° |
| 2026-05-04 23:08 | -11.40367 | 111.15996 | 38878 ft | 474 kts | 158° |
| 2026-05-04 23:09 | -11.46417 | 111.18694 | 38878 ft | 474 kts | 158° |
| 2026-05-04 23:09 | -11.52465 | 111.21394 | 38880 ft | 475 kts | 158° |
| 2026-05-04 23:10 | -11.58509 | 111.24095 | 38889 ft | 475 kts | 158° |
| 2026-05-04 23:10 | -11.64554 | 111.26797 | 38888 ft | 474 kts | 158° |
| 2026-05-04 23:11 | -11.70599 | 111.29498 | 38889 ft | 474 kts | 158° |
| 2026-05-04 23:11 | -11.76645 | 111.32202 | 38887 ft | 474 kts | 158° |
| 2026-05-04 23:12 | -11.82687 | 111.34906 | 38888 ft | 475 kts | 158° |
| 2026-05-04 23:12 | -11.88747 | 111.37606 | 38888 ft | 475 kts | 158° |
| 2026-05-04 23:13 | -11.94794 | 111.40312 | 38889 ft | 474 kts | 158° |
| 2026-05-04 23:13 | -12.00657 | 111.43399 | 38885 ft | 476 kts | 146° |
| 2026-05-04 23:14 | -12.05933 | 111.47425 | 38887 ft | 478 kts | 143° |
| 2026-05-04 23:14 | -12.11136 | 111.51667 | 38890 ft | 478 kts | 142° |
| 2026-05-04 23:15 | -12.16313 | 111.55935 | 38888 ft | 478 kts | 142° |
| 2026-05-04 23:15 | -12.21495 | 111.60194 | 38889 ft | 478 kts | 142° |
| 2026-05-04 23:16 | -12.26690 | 111.64442 | 38899 ft | 478 kts | 143° |
| 2026-05-04 23:16 | -12.31887 | 111.68686 | 38907 ft | 478 kts | 143° |
| 2026-05-04 23:17 | -12.37081 | 111.72931 | 38906 ft | 478 kts | 143° |
| 2026-05-04 23:17 | -12.42282 | 111.77184 | 38908 ft | 478 kts | 143° |
| 2026-05-04 23:18 | -12.47477 | 111.81436 | 38906 ft | 478 kts | 143° |
| 2026-05-04 23:18 | -12.52671 | 111.85689 | 38909 ft | 478 kts | 143° |
| 2026-05-04 23:19 | -12.57862 | 111.89943 | 38907 ft | 478 kts | 142° |
| 2026-05-04 23:19 | -12.63058 | 111.94204 | 38905 ft | 478 kts | 143° |
| 2026-05-04 23:20 | -12.68253 | 111.98464 | 38913 ft | 479 kts | 143° |
| 2026-05-04 23:20 | -12.73449 | 112.02729 | 38916 ft | 478 kts | 143° |
| 2026-05-04 23:21 | -12.78642 | 112.06994 | 38926 ft | 478 kts | 143° |
| 2026-05-04 23:21 | -12.83827 | 112.11258 | 38917 ft | 478 kts | 143° |
| 2026-05-04 23:22 | -12.89018 | 112.15526 | 38932 ft | 478 kts | 143° |
| 2026-05-04 23:22 | -12.94210 | 112.19795 | 38922 ft | 478 kts | 143° |
| 2026-05-04 23:23 | -12.99395 | 112.24062 | 38932 ft | 478 kts | 143° |
| 2026-05-04 23:23 | -13.04549 | 112.28306 | 38916 ft | 478 kts | 143° |
| 2026-05-04 23:24 | -13.09739 | 112.32582 | 38928 ft | 478 kts | 143° |
| 2026-05-04 23:24 | -13.14918 | 112.36853 | 38919 ft | 478 kts | 143° |
| 2026-05-04 23:25 | -13.20102 | 112.41129 | 38935 ft | 478 kts | 143° |
| 2026-05-04 23:25 | -13.25288 | 112.45407 | 38930 ft | 478 kts | 143° |
| 2026-05-04 23:26 | -13.30472 | 112.49687 | 38934 ft | 478 kts | 143° |
| 2026-05-04 23:26 | -13.35657 | 112.53970 | 38936 ft | 479 kts | 143° |
| 2026-05-04 23:27 | -13.40845 | 112.58257 | 38930 ft | 479 kts | 143° |
| 2026-05-04 23:27 | -13.46028 | 112.62545 | 38932 ft | 478 kts | 143° |
| 2026-05-04 23:28 | -13.51209 | 112.66834 | 38935 ft | 478 kts | 143° |
| 2026-05-04 23:28 | -13.56387 | 112.71123 | 38936 ft | 478 kts | 143° |
| 2026-05-04 23:29 | -13.61568 | 112.75415 | 38937 ft | 478 kts | 143° |
| 2026-05-04 23:29 | -13.66743 | 112.79706 | 38937 ft | 478 kts | 143° |
| 2026-05-04 23:30 | -13.71917 | 112.84001 | 39028 ft | 478 kts | 143° |
| 2026-05-04 23:30 | -13.74503 | 112.86147 | 39204 ft | 477 kts | 143° |
| 2026-05-04 23:30 | -13.77086 | 112.88291 | 39353 ft | 477 kts | 143° |
| 2026-05-04 23:31 | -13.79666 | 112.90434 | 39505 ft | 477 kts | 143° |
| 2026-05-04 23:31 | -13.82248 | 112.92579 | 39661 ft | 476 kts | 143° |
| 2026-05-04 23:31 | -13.84823 | 112.94719 | 39811 ft | 476 kts | 143° |
| 2026-05-04 23:31 | -13.87396 | 112.96859 | 39946 ft | 475 kts | 143° |
| 2026-05-04 23:32 | -13.89968 | 112.98997 | 40087 ft | 475 kts | 143° |
| 2026-05-04 23:32 | -13.92537 | 113.01132 | 40216 ft | 474 kts | 143° |
| 2026-05-04 23:32 | -13.95101 | 113.03265 | 40327 ft | 474 kts | 143° |
| 2026-05-04 23:32 | -13.97668 | 113.05400 | 40454 ft | 474 kts | 143° |
| 2026-05-04 23:33 | -14.01927 | 113.08945 | 40646 ft | 474 kts | 143° |
| 2026-05-04 23:33 | -14.07888 | 113.13910 | 40891 ft | 474 kts | 143° |
| 2026-05-04 23:34 | -14.13027 | 113.18192 | 40943 ft | 477 kts | 143° |
| 2026-05-04 23:34 | -14.17349 | 113.21796 | 40943 ft | 477 kts | 143° |
| 2026-05-04 23:35 | -14.22496 | 113.26092 | 40944 ft | 476 kts | 143° |
| 2026-05-04 23:35 | -14.27611 | 113.30363 | 40946 ft | 476 kts | 143° |
| 2026-05-04 23:36 | -14.32758 | 113.34662 | 40952 ft | 476 kts | 143° |
| 2026-05-04 23:36 | -14.37898 | 113.38959 | 40952 ft | 476 kts | 143° |
| 2026-05-04 23:37 | -14.43039 | 113.43259 | 40952 ft | 476 kts | 143° |
| 2026-05-04 23:37 | -14.48179 | 113.47561 | 40952 ft | 476 kts | 143° |
| 2026-05-04 23:38 | -14.53313 | 113.51861 | 40952 ft | 476 kts | 143° |
| 2026-05-04 23:38 | -14.58452 | 113.56167 | 40952 ft | 476 kts | 143° |
| 2026-05-04 23:39 | -14.63586 | 113.60472 | 40952 ft | 476 kts | 143° |
| 2026-05-04 23:39 | -14.68728 | 113.64786 | 40954 ft | 476 kts | 143° |
| 2026-05-04 23:40 | -14.73864 | 113.69098 | 40960 ft | 476 kts | 143° |
| 2026-05-04 23:40 | -14.79005 | 113.73417 | 40961 ft | 476 kts | 143° |
| 2026-05-04 23:41 | -14.84145 | 113.77738 | 40961 ft | 476 kts | 143° |
| 2026-05-04 23:41 | -14.89285 | 113.82061 | 40961 ft | 476 kts | 143° |
| 2026-05-04 23:42 | -14.94426 | 113.86388 | 40961 ft | 476 kts | 143° |
| 2026-05-04 23:42 | -14.99564 | 113.90716 | 40962 ft | 476 kts | 143° |
| 2026-05-04 23:43 | -15.04713 | 113.95054 | 40969 ft | 477 kts | 143° |
| 2026-05-04 23:43 | -15.09854 | 113.99390 | 40970 ft | 477 kts | 143° |
| 2026-05-04 23:44 | -15.14998 | 114.03730 | 40973 ft | 477 kts | 143° |
| 2026-05-04 23:44 | -15.20141 | 114.08073 | 40972 ft | 477 kts | 143° |
| 2026-05-04 23:45 | -15.25283 | 114.12418 | 40983 ft | 477 kts | 143° |
| 2026-05-04 23:45 | -15.30391 | 114.16737 | 41001 ft | 477 kts | 143° |
| 2026-05-04 23:46 | -15.35534 | 114.21087 | 41005 ft | 477 kts | 143° |
| 2026-05-04 23:46 | -15.40679 | 114.25444 | 41009 ft | 477 kts | 143° |
| 2026-05-04 23:47 | -15.45823 | 114.29801 | 41010 ft | 478 kts | 143° |
| 2026-05-04 23:47 | -15.50968 | 114.34162 | 41020 ft | 478 kts | 143° |
| 2026-05-04 23:48 | -15.56116 | 114.38529 | 41016 ft | 478 kts | 143° |
| 2026-05-04 23:48 | -15.61264 | 114.42899 | 41017 ft | 478 kts | 143° |
| 2026-05-04 23:49 | -15.66409 | 114.47269 | 41015 ft | 478 kts | 143° |
| 2026-05-04 23:49 | -15.71553 | 114.51642 | 41017 ft | 478 kts | 143° |
| 2026-05-04 23:50 | -15.76701 | 114.56020 | 41027 ft | 478 kts | 143° |
| 2026-05-04 23:50 | -15.81843 | 114.60397 | 41035 ft | 478 kts | 143° |
| 2026-05-04 23:51 | -15.86987 | 114.64778 | 41036 ft | 478 kts | 143° |
| 2026-05-04 23:51 | -15.92128 | 114.69159 | 41038 ft | 478 kts | 143° |
| 2026-05-04 23:52 | -15.97263 | 114.73539 | 41036 ft | 478 kts | 143° |
| 2026-05-04 23:52 | -16.02401 | 114.77924 | 41038 ft | 478 kts | 143° |
| 2026-05-04 23:53 | -16.07541 | 114.82314 | 41040 ft | 479 kts | 144° |
| 2026-05-04 23:53 | -16.12653 | 114.86682 | 41045 ft | 479 kts | 143° |
| 2026-05-04 23:54 | -16.17802 | 114.91086 | 41042 ft | 479 kts | 143° |
| 2026-05-04 23:54 | -16.22950 | 114.95492 | 41045 ft | 479 kts | 144° |
| 2026-05-04 23:55 | -16.28102 | 114.99904 | 41046 ft | 480 kts | 144° |
| 2026-05-04 23:56 | -16.35827 | 115.06526 | 41048 ft | 479 kts | 144° |
| 2026-05-04 23:56 | -16.40972 | 115.10940 | 41054 ft | 479 kts | 144° |
| 2026-05-04 23:57 | -16.46118 | 115.15360 | 41054 ft | 480 kts | 144° |
| 2026-05-04 23:57 | -16.51264 | 115.19786 | 41054 ft | 479 kts | 143° |
| 2026-05-04 23:58 | -16.56404 | 115.24213 | 41055 ft | 479 kts | 143° |
| 2026-05-04 23:58 | -16.61545 | 115.28642 | 41055 ft | 479 kts | 144° |
| 2026-05-04 23:59 | -16.66685 | 115.33073 | 41061 ft | 480 kts | 144° |
| 2026-05-04 23:59 | -16.71827 | 115.37510 | 41064 ft | 480 kts | 144° |
| 2026-05-05 00:00 | -16.76969 | 115.41950 | 41064 ft | 480 kts | 144° |
| 2026-05-05 00:00 | -16.82112 | 115.46393 | 41063 ft | 480 kts | 144° |
| 2026-05-05 00:01 | -16.87257 | 115.50843 | 41063 ft | 480 kts | 144° |
| 2026-05-05 00:01 | -16.92398 | 115.55291 | 41063 ft | 480 kts | 144° |
| 2026-05-05 00:02 | -16.97547 | 115.59749 | 41064 ft | 481 kts | 144° |
| 2026-05-05 00:02 | -17.02695 | 115.64210 | 41071 ft | 481 kts | 144° |
| 2026-05-05 00:03 | -17.07812 | 115.68648 | 41072 ft | 481 kts | 144° |
| 2026-05-05 00:03 | -17.12964 | 115.73119 | 41072 ft | 481 kts | 144° |
| 2026-05-05 00:04 | -17.18114 | 115.77592 | 41070 ft | 481 kts | 144° |
| 2026-05-05 00:04 | -17.23275 | 115.82078 | 41073 ft | 482 kts | 144° |
| 2026-05-05 00:05 | -17.28425 | 115.86557 | 41075 ft | 482 kts | 144° |
| 2026-05-05 00:05 | -17.33585 | 115.91049 | 41081 ft | 483 kts | 144° |
| 2026-05-05 00:06 | -17.38749 | 115.95547 | 41082 ft | 483 kts | 144° |
| 2026-05-05 00:06 | -17.43913 | 116.00049 | 41082 ft | 483 kts | 144° |
| 2026-05-05 00:07 | -17.49074 | 116.04552 | 41079 ft | 483 kts | 144° |
| 2026-05-05 00:07 | -17.54241 | 116.09063 | 41082 ft | 483 kts | 144° |
| 2026-05-05 00:08 | -17.59408 | 116.13578 | 41082 ft | 484 kts | 144° |
| 2026-05-05 00:08 | -17.64580 | 116.18101 | 41082 ft | 484 kts | 144° |
| 2026-05-05 00:09 | -17.69752 | 116.22627 | 41084 ft | 484 kts | 144° |
| 2026-05-05 00:09 | -17.74923 | 116.27156 | 41091 ft | 484 kts | 144° |
| 2026-05-05 00:10 | -17.80096 | 116.31690 | 41092 ft | 484 kts | 144° |
| 2026-05-05 00:10 | -17.85268 | 116.36227 | 41094 ft | 484 kts | 144° |
| 2026-05-05 00:11 | -17.90440 | 116.40767 | 41097 ft | 484 kts | 144° |
| 2026-05-05 00:11 | -17.95608 | 116.45308 | 41107 ft | 484 kts | 144° |
| 2026-05-05 00:12 | -18.00774 | 116.49850 | 41104 ft | 484 kts | 143° |
| 2026-05-05 00:12 | -18.05943 | 116.54399 | 41101 ft | 485 kts | 144° |
| 2026-05-05 00:13 | -18.11076 | 116.58919 | 41096 ft | 485 kts | 144° |
| 2026-05-05 00:13 | -18.16241 | 116.63470 | 41100 ft | 484 kts | 144° |
| 2026-05-05 00:14 | -18.21410 | 116.68025 | 41109 ft | 485 kts | 144° |
| 2026-05-05 00:14 | -18.26575 | 116.72580 | 41109 ft | 485 kts | 144° |
| 2026-05-05 00:15 | -18.31743 | 116.77142 | 41111 ft | 485 kts | 144° |
| 2026-05-05 00:15 | -18.36907 | 116.81705 | 41112 ft | 485 kts | 144° |
| 2026-05-05 00:16 | -18.42076 | 116.86275 | 41112 ft | 485 kts | 144° |
| 2026-05-05 00:16 | -18.47236 | 116.90841 | 41105 ft | 484 kts | 144° |
| 2026-05-05 00:17 | -18.52394 | 116.95409 | 41105 ft | 485 kts | 144° |
| 2026-05-05 00:17 | -18.57556 | 116.99986 | 41110 ft | 485 kts | 144° |
| 2026-05-05 00:18 | -18.62717 | 117.04564 | 41109 ft | 485 kts | 144° |
| 2026-05-05 00:18 | -18.67877 | 117.09145 | 41105 ft | 485 kts | 144° |
| 2026-05-05 00:19 | -18.73036 | 117.13729 | 41109 ft | 485 kts | 144° |
| 2026-05-05 00:19 | -18.78199 | 117.18321 | 41105 ft | 485 kts | 144° |
| 2026-05-05 00:20 | -18.83359 | 117.22913 | 41116 ft | 485 kts | 144° |
| 2026-05-05 00:20 | -18.87643 | 117.26730 | 41118 ft | 485 kts | 144° |
| 2026-05-05 00:21 | -18.93669 | 117.32101 | 41125 ft | 485 kts | 144° |
| 2026-05-05 00:21 | -18.97954 | 117.35924 | 41125 ft | 485 kts | 144° |
| 2026-05-05 00:22 | -19.03107 | 117.40525 | 41120 ft | 485 kts | 144° |
| 2026-05-05 00:22 | -19.08226 | 117.45100 | 41125 ft | 485 kts | 144° |
| 2026-05-05 00:23 | -19.13376 | 117.49706 | 41125 ft | 485 kts | 144° |
| 2026-05-05 00:23 | -19.18525 | 117.54316 | 41107 ft | 485 kts | 144° |
| 2026-05-05 00:24 | -19.23676 | 117.58931 | 41112 ft | 485 kts | 144° |
| 2026-05-05 00:24 | -19.28824 | 117.63547 | 41125 ft | 485 kts | 144° |
| 2026-05-05 00:25 | -19.33976 | 117.68170 | 41109 ft | 485 kts | 144° |
| 2026-05-05 00:25 | -19.39126 | 117.72796 | 41116 ft | 485 kts | 144° |
| 2026-05-05 00:26 | -19.44268 | 117.77419 | 41125 ft | 485 kts | 144° |
| 2026-05-05 00:26 | -19.49413 | 117.82049 | 41116 ft | 485 kts | 144° |
| 2026-05-05 00:27 | -19.54559 | 117.86682 | 41119 ft | 485 kts | 144° |
| 2026-05-05 00:27 | -19.59701 | 117.91317 | 41128 ft | 485 kts | 144° |
| 2026-05-05 00:28 | -19.64842 | 117.95955 | 41128 ft | 485 kts | 144° |
| 2026-05-05 00:28 | -19.69942 | 118.00560 | 41128 ft | 485 kts | 144° |
| 2026-05-05 00:29 | -19.75076 | 118.05199 | 41129 ft | 485 kts | 144° |
| 2026-05-05 00:29 | -19.80213 | 118.09845 | 41128 ft | 485 kts | 144° |
| 2026-05-05 00:30 | -19.85348 | 118.14494 | 41129 ft | 485 kts | 144° |
| 2026-05-05 00:30 | -19.90483 | 118.19146 | 41128 ft | 485 kts | 144° |
| 2026-05-05 00:31 | -19.95617 | 118.23802 | 41128 ft | 485 kts | 144° |
| 2026-05-05 00:31 | -20.00748 | 118.28460 | 41128 ft | 485 kts | 144° |
| 2026-05-05 00:32 | -20.05878 | 118.33121 | 41129 ft | 485 kts | 144° |
| 2026-05-05 00:32 | -20.11008 | 118.37785 | 41128 ft | 485 kts | 144° |
| 2026-05-05 00:33 | -20.16136 | 118.42453 | 41128 ft | 485 kts | 144° |
| 2026-05-05 00:33 | -20.21267 | 118.47126 | 41128 ft | 485 kts | 144° |
| 2026-05-05 00:34 | -20.26358 | 118.51768 | 41127 ft | 485 kts | 144° |
| 2026-05-05 00:34 | -20.31486 | 118.56448 | 41129 ft | 486 kts | 144° |
| 2026-05-05 00:35 | -20.36615 | 118.61139 | 41128 ft | 486 kts | 142° |
| 2026-05-05 00:35 | -20.41456 | 118.66216 | 41129 ft | 489 kts | 139° |
| 2026-05-05 00:36 | -20.46203 | 118.71414 | 41128 ft | 489 kts | 139° |
| 2026-05-05 00:36 | -20.50931 | 118.76644 | 41128 ft | 490 kts | 138° |
| 2026-05-05 00:37 | -20.55658 | 118.81871 | 41128 ft | 490 kts | 139° |
| 2026-05-05 00:37 | -20.60393 | 118.87102 | 41128 ft | 489 kts | 139° |
| 2026-05-05 00:38 | -20.65123 | 118.92329 | 41129 ft | 489 kts | 139° |
| 2026-05-05 00:38 | -20.69852 | 118.97558 | 41128 ft | 489 kts | 139° |
| 2026-05-05 00:39 | -20.74579 | 119.02791 | 41128 ft | 489 kts | 139° |
| 2026-05-05 00:39 | -20.79305 | 119.08028 | 41128 ft | 489 kts | 138° |
| 2026-05-05 00:40 | -20.84028 | 119.13267 | 41129 ft | 489 kts | 139° |
| 2026-05-05 00:40 | -20.88752 | 119.18511 | 41128 ft | 490 kts | 138° |
| 2026-05-05 00:41 | -20.93475 | 119.23761 | 41129 ft | 490 kts | 138° |
| 2026-05-05 00:41 | -20.98196 | 119.29013 | 41128 ft | 489 kts | 138° |
| 2026-05-05 00:42 | -21.02913 | 119.34265 | 41128 ft | 489 kts | 138° |
| 2026-05-05 00:42 | -21.07631 | 119.39523 | 41129 ft | 490 kts | 138° |
| 2026-05-05 00:43 | -21.12345 | 119.44783 | 41128 ft | 490 kts | 138° |
| 2026-05-05 00:43 | -21.17061 | 119.50049 | 41129 ft | 490 kts | 138° |
| 2026-05-05 00:44 | -21.21776 | 119.55321 | 41137 ft | 490 kts | 138° |
| 2026-05-05 00:44 | -21.26490 | 119.60595 | 41137 ft | 490 kts | 138° |
| 2026-05-05 00:45 | -21.31202 | 119.65873 | 41138 ft | 490 kts | 138° |
| 2026-05-05 00:45 | -21.35883 | 119.71121 | 41137 ft | 490 kts | 138° |
| 2026-05-05 00:46 | -21.40634 | 119.76453 | 41137 ft | 491 kts | 138° |
| 2026-05-05 00:46 | -21.45317 | 119.81714 | 41137 ft | 491 kts | 138° |
| 2026-05-05 00:47 | -21.50032 | 119.87017 | 41138 ft | 491 kts | 138° |
| 2026-05-05 00:47 | -21.54748 | 119.92325 | 41137 ft | 491 kts | 138° |
| 2026-05-05 00:48 | -21.59458 | 119.97633 | 41138 ft | 491 kts | 138° |
| 2026-05-05 00:48 | -21.64174 | 120.02952 | 41143 ft | 491 kts | 138° |
| 2026-05-05 00:49 | -21.68887 | 120.08274 | 41146 ft | 491 kts | 138° |
| 2026-05-05 00:49 | -21.73599 | 120.13599 | 41146 ft | 491 kts | 138° |
| 2026-05-05 00:50 | -21.78307 | 120.18926 | 41154 ft | 491 kts | 138° |
| 2026-05-05 00:50 | -21.83012 | 120.24254 | 41164 ft | 491 kts | 138° |
| 2026-05-05 00:51 | -21.87716 | 120.29588 | 41165 ft | 491 kts | 138° |
| 2026-05-05 00:51 | -21.92417 | 120.34923 | 41164 ft | 491 kts | 138° |
| 2026-05-05 00:52 | -21.97116 | 120.40262 | 41164 ft | 491 kts | 138° |
| 2026-05-05 00:52 | -22.01818 | 120.45608 | 41164 ft | 491 kts | 138° |
| 2026-05-05 00:53 | -22.06489 | 120.50925 | 41172 ft | 492 kts | 138° |
| 2026-05-05 00:53 | -22.11192 | 120.56284 | 41173 ft | 492 kts | 138° |
| 2026-05-05 00:54 | -22.15890 | 120.61644 | 41176 ft | 492 kts | 138° |
| 2026-05-05 00:54 | -22.20592 | 120.67013 | 41175 ft | 492 kts | 138° |
| 2026-05-05 00:55 | -22.25289 | 120.72383 | 41173 ft | 492 kts | 138° |
| 2026-05-05 00:55 | -22.29981 | 120.77753 | 41172 ft | 491 kts | 138° |
| 2026-05-05 00:56 | -22.34673 | 120.83127 | 41173 ft | 492 kts | 138° |
| 2026-05-05 00:56 | -22.39367 | 120.88509 | 41180 ft | 492 kts | 138° |
| 2026-05-05 00:57 | -22.44057 | 120.93893 | 41183 ft | 492 kts | 138° |
| 2026-05-05 00:57 | -22.48747 | 120.99283 | 41183 ft | 492 kts | 138° |
| 2026-05-05 00:58 | -22.53435 | 121.04675 | 41184 ft | 492 kts | 138° |
| 2026-05-05 00:58 | -22.58089 | 121.10035 | 41183 ft | 492 kts | 138° |
| 2026-05-05 00:59 | -22.62775 | 121.15438 | 41183 ft | 492 kts | 138° |
| 2026-05-05 00:59 | -22.67458 | 121.20842 | 41183 ft | 492 kts | 138° |
| 2026-05-05 01:00 | -22.72140 | 121.26251 | 41184 ft | 492 kts | 138° |
| 2026-05-05 01:00 | -22.76826 | 121.31670 | 41183 ft | 492 kts | 138° |
| 2026-05-05 01:01 | -22.81508 | 121.37091 | 41183 ft | 492 kts | 138° |
| 2026-05-05 01:01 | -22.86184 | 121.42511 | 41184 ft | 493 kts | 138° |
| 2026-05-05 01:02 | -22.90863 | 121.47940 | 41183 ft | 493 kts | 138° |
| 2026-05-05 01:02 | -22.95541 | 121.53375 | 41183 ft | 493 kts | 138° |
| 2026-05-05 01:03 | -23.00210 | 121.58810 | 41184 ft | 493 kts | 138° |
| 2026-05-05 01:03 | -23.04889 | 121.64262 | 41183 ft | 493 kts | 138° |
| 2026-05-05 01:04 | -23.09558 | 121.69710 | 41183 ft | 493 kts | 138° |
| 2026-05-05 01:04 | -23.16530 | 121.77855 | 41193 ft | 493 kts | 137° |
| 2026-05-05 01:05 | -23.21230 | 121.83355 | 41193 ft | 493 kts | 138° |
| 2026-05-05 01:05 | -23.25897 | 121.88819 | 41192 ft | 493 kts | 137° |
| 2026-05-05 01:06 | -23.30563 | 121.94291 | 41192 ft | 493 kts | 137° |
| 2026-05-05 01:06 | -23.35227 | 121.99768 | 41192 ft | 493 kts | 137° |
| 2026-05-05 01:07 | -23.39866 | 122.05212 | 41193 ft | 494 kts | 137° |
| 2026-05-05 01:07 | -23.44533 | 122.10698 | 41192 ft | 494 kts | 137° |
| 2026-05-05 01:08 | -23.49189 | 122.16183 | 41192 ft | 493 kts | 137° |
| 2026-05-05 01:08 | -23.53846 | 122.21678 | 41193 ft | 493 kts | 137° |
| 2026-05-05 01:09 | -23.58497 | 122.27171 | 41191 ft | 494 kts | 137° |
| 2026-05-05 01:09 | -23.62375 | 122.31748 | 41193 ft | 495 kts | 137° |
| 2026-05-05 01:10 | -23.67039 | 122.37261 | 41192 ft | 494 kts | 137° |
| 2026-05-05 01:10 | -23.71697 | 122.42775 | 41192 ft | 494 kts | 137° |
| 2026-05-05 01:11 | -23.76346 | 122.48288 | 41192 ft | 493 kts | 137° |
| 2026-05-05 01:11 | -23.80987 | 122.53803 | 41193 ft | 493 kts | 137° |
| 2026-05-05 01:12 | -23.85633 | 122.59321 | 41193 ft | 494 kts | 137° |
| 2026-05-05 01:12 | -23.90278 | 122.64847 | 41193 ft | 493 kts | 137° |
| 2026-05-05 01:13 | -23.94913 | 122.70371 | 41193 ft | 494 kts | 137° |
| 2026-05-05 01:13 | -23.99560 | 122.75904 | 41193 ft | 494 kts | 137° |
| 2026-05-05 01:14 | -24.04196 | 122.81434 | 41193 ft | 494 kts | 137° |
| 2026-05-05 01:14 | -24.08830 | 122.86976 | 41193 ft | 493 kts | 137° |
| 2026-05-05 01:15 | -24.13457 | 122.92519 | 41202 ft | 493 kts | 137° |
| 2026-05-05 01:15 | -24.18075 | 122.98052 | 41202 ft | 492 kts | 137° |
| 2026-05-05 01:16 | -24.22693 | 123.03583 | 41201 ft | 492 kts | 137° |
| 2026-05-05 01:16 | -24.27309 | 123.09128 | 41202 ft | 492 kts | 137° |
| 2026-05-05 01:17 | -24.31895 | 123.14633 | 41201 ft | 491 kts | 137° |
| 2026-05-05 01:17 | -24.36504 | 123.20179 | 41201 ft | 493 kts | 137° |
| 2026-05-05 01:18 | -24.41121 | 123.25734 | 41203 ft | 492 kts | 137° |
| 2026-05-05 01:18 | -24.45728 | 123.31298 | 41211 ft | 492 kts | 137° |
| 2026-05-05 01:19 | -24.50328 | 123.36855 | 41211 ft | 492 kts | 137° |
| 2026-05-05 01:19 | -24.54932 | 123.42423 | 41212 ft | 492 kts | 136° |
| 2026-05-05 01:20 | -24.59527 | 123.47993 | 41210 ft | 492 kts | 137° |
| 2026-05-05 01:20 | -24.64120 | 123.53561 | 41211 ft | 492 kts | 137° |
| 2026-05-05 01:21 | -24.68713 | 123.59127 | 41211 ft | 491 kts | 137° |
| 2026-05-05 01:21 | -24.73304 | 123.64701 | 41220 ft | 492 kts | 136° |
| 2026-05-05 01:22 | -24.77892 | 123.70278 | 41220 ft | 491 kts | 136° |
| 2026-05-05 01:22 | -24.82474 | 123.75864 | 41220 ft | 492 kts | 136° |
| 2026-05-05 01:23 | -24.87055 | 123.81449 | 41220 ft | 491 kts | 136° |
| 2026-05-05 01:23 | -24.91635 | 123.87039 | 41222 ft | 491 kts | 136° |
| 2026-05-05 01:24 | -24.96204 | 123.92627 | 41244 ft | 491 kts | 136° |
| 2026-05-05 01:24 | -25.00777 | 123.98228 | 41257 ft | 492 kts | 136° |
| 2026-05-05 01:25 | -25.05323 | 124.03794 | 41266 ft | 491 kts | 136° |
| 2026-05-05 01:25 | -25.09890 | 124.09395 | 41268 ft | 491 kts | 136° |
| 2026-05-05 01:26 | -25.14451 | 124.15001 | 41272 ft | 490 kts | 136° |
| 2026-05-05 01:26 | -25.19005 | 124.20600 | 41274 ft | 490 kts | 136° |
| 2026-05-05 01:27 | -25.23555 | 124.26208 | 41277 ft | 490 kts | 136° |
| 2026-05-05 01:27 | -25.28110 | 124.31816 | 41275 ft | 490 kts | 136° |
| 2026-05-05 01:28 | -25.32651 | 124.37418 | 41274 ft | 490 kts | 136° |
| 2026-05-05 01:28 | -25.37195 | 124.43032 | 41282 ft | 489 kts | 136° |
| 2026-05-05 01:29 | -25.41730 | 124.48643 | 41282 ft | 489 kts | 136° |
| 2026-05-05 01:29 | -25.46263 | 124.54259 | 41281 ft | 489 kts | 136° |
| 2026-05-05 01:30 | -25.50797 | 124.59881 | 41282 ft | 489 kts | 136° |
| 2026-05-05 01:30 | -25.55327 | 124.65505 | 41297 ft | 489 kts | 135° |
| 2026-05-05 01:31 | -25.59852 | 124.71131 | 41289 ft | 489 kts | 135° |
| 2026-05-05 01:31 | -25.64376 | 124.76762 | 41296 ft | 489 kts | 135° |
| 2026-05-05 01:32 | -25.68900 | 124.82400 | 41295 ft | 489 kts | 135° |
| 2026-05-05 01:32 | -25.73420 | 124.88040 | 41290 ft | 489 kts | 135° |
| 2026-05-05 01:33 | -25.77908 | 124.93647 | 41297 ft | 489 kts | 135° |
| 2026-05-05 01:33 | -25.82425 | 124.99297 | 41309 ft | 489 kts | 135° |
| 2026-05-05 01:34 | -25.85446 | 125.03080 | 41310 ft | 489 kts | 135° |